createdAt,value
2022-10-26T00:01:17.689Z,12.82
2022-10-26T00:03:46.164Z,12.79
2022-10-26T00:06:22.067Z,12.79
2022-10-26T00:08:49.483Z,12.72
2022-10-26T00:11:17.165Z,12.70
2022-10-26T00:13:44.096Z,12.68
2022-10-26T00:16:14.069Z,12.72
2022-10-26T00:18:41.168Z,12.69
2022-10-26T00:21:09.510Z,12.71
2022-10-26T00:23:36.732Z,12.72
2022-10-26T00:26:03.583Z,12.70
2022-10-26T00:28:30.295Z,12.73
2022-10-26T00:31:05.977Z,12.77
2022-10-26T00:33:33.052Z,12.81
2022-10-26T00:35:59.856Z,12.79
2022-10-26T00:38:26.667Z,12.71
2022-10-26T00:40:53.474Z,12.76
2022-10-26T00:43:20.212Z,12.77
2022-10-26T00:45:48.457Z,12.79
2022-10-26T00:48:27.406Z,12.82
2022-10-26T00:50:54.717Z,12.79
2022-10-26T00:53:21.538Z,12.79
2022-10-26T00:55:51.044Z,12.83
2022-10-26T00:58:19.755Z,12.86
2022-10-26T01:00:48.111Z,12.82
2022-10-26T01:03:16.235Z,12.83
2022-10-26T01:05:46.003Z,12.82
2022-10-26T01:08:14.420Z,12.83
2022-10-26T01:10:42.736Z,12.82
2022-10-26T01:13:09.985Z,12.79
2022-10-26T01:15:44.038Z,12.83
2022-10-26T01:18:17.214Z,12.84
2022-10-26T01:21:06.911Z,12.90
2022-10-26T01:23:56.561Z,12.91
2022-10-26T01:27:01.700Z,12.91
2022-10-26T01:30:11.373Z,12.96
2022-10-26T01:32:59.496Z,12.97
2022-10-26T01:35:39.660Z,12.98
2022-10-26T01:38:11.042Z,12.99
2022-10-26T01:40:44.827Z,13.02
2022-10-26T01:43:14.143Z,13.03
2022-10-26T01:45:46.188Z,13.02
2022-10-26T01:48:16.285Z,13.02
2022-10-26T01:50:47.766Z,13.06
2022-10-26T01:53:16.016Z,13.08
2022-10-26T01:55:52.830Z,13.08
2022-10-26T01:59:00.944Z,13.07
2022-10-26T02:02:01.164Z,13.08
2022-10-26T02:04:47.042Z,13.08
2022-10-26T02:08:07.871Z,13.08
2022-10-26T02:10:54.229Z,13.09
2022-10-26T02:13:25.816Z,13.12
2022-10-26T02:16:17.290Z,13.11
2022-10-26T02:18:46.801Z,13.14
2022-10-26T02:21:18.420Z,13.16
2022-10-26T02:23:47.359Z,13.16
2022-10-26T02:26:18.113Z,13.15
2022-10-26T02:28:50.053Z,13.20
2022-10-26T02:31:19.710Z,13.12
2022-10-26T02:33:50.826Z,13.16
2022-10-26T02:36:24.241Z,13.21
2022-10-26T02:38:53.236Z,13.22
2022-10-26T02:41:22.592Z,13.23
2022-10-26T02:43:55.762Z,13.24
2022-10-26T02:46:26.537Z,13.25
2022-10-26T02:48:53.947Z,13.24
2022-10-26T02:51:23.403Z,13.20
2022-10-26T02:54:14.746Z,13.25
2022-10-26T02:57:00.799Z,13.24
2022-10-26T02:59:31.530Z,13.24
2022-10-26T03:01:58.512Z,13.28
2022-10-26T03:04:30.593Z,13.27
2022-10-26T03:06:57.485Z,13.30
2022-10-26T03:09:25.695Z,13.26
2022-10-26T03:11:53.001Z,13.29
2022-10-26T03:14:20.628Z,13.30
2022-10-26T03:16:47.489Z,13.32
2022-10-26T03:19:14.301Z,13.32
2022-10-26T03:21:42.366Z,13.35
2022-10-26T03:24:10.185Z,13.32
2022-10-26T03:26:37.237Z,13.34
2022-10-26T03:29:04.367Z,13.35
2022-10-26T03:31:31.095Z,13.33
2022-10-26T03:33:57.871Z,13.35
2022-10-26T03:36:24.593Z,13.30
2022-10-26T03:38:51.377Z,13.32
2022-10-26T03:41:18.077Z,13.33
2022-10-26T03:43:44.793Z,13.37
2022-10-26T03:46:11.490Z,13.41
2022-10-26T03:48:38.338Z,13.39
2022-10-26T03:51:05.167Z,13.41
2022-10-26T03:53:32.049Z,13.40
2022-10-26T03:55:58.851Z,13.41
2022-10-26T04:00:57.312Z,13.41
2022-10-26T04:03:24.101Z,13.37
2022-10-26T04:05:50.960Z,13.40
2022-10-26T04:08:17.690Z,13.43
2022-10-26T04:10:45.875Z,13.42
2022-10-26T04:13:12.592Z,13.47
2022-10-26T04:15:39.368Z,13.44
2022-10-26T04:18:06.236Z,13.54
2022-10-26T04:20:34.752Z,13.61
2022-10-26T04:23:04.168Z,13.62
2022-10-26T04:25:33.297Z,13.62
2022-10-26T04:28:02.511Z,13.61
2022-10-26T04:30:29.760Z,13.56
2022-10-26T04:32:56.638Z,13.54
2022-10-26T04:35:23.679Z,13.53
2022-10-26T04:37:50.565Z,13.53
2022-10-26T04:40:17.448Z,13.49
2022-10-26T04:42:46.367Z,13.48
2022-10-26T04:45:15.058Z,13.45
2022-10-26T04:47:42.572Z,13.44
2022-10-26T04:50:11.559Z,13.41
2022-10-26T04:52:38.518Z,13.39
2022-10-26T04:55:06.321Z,13.39
2022-10-26T04:57:34.408Z,13.39
2022-10-26T05:00:02.242Z,13.39
2022-10-26T05:02:29.548Z,13.39
2022-10-26T05:04:56.639Z,13.38
2022-10-26T05:07:23.685Z,13.38
2022-10-26T05:09:50.434Z,13.40
2022-10-26T05:12:17.244Z,13.41
2022-10-26T05:14:43.914Z,13.41
2022-10-26T05:17:10.796Z,13.38
2022-10-26T05:19:37.640Z,13.41
2022-10-26T05:22:04.687Z,13.43
2022-10-26T05:24:31.451Z,13.41
2022-10-26T05:26:58.362Z,13.44
2022-10-26T05:29:25.082Z,13.46
2022-10-26T05:31:52.302Z,13.44
2022-10-26T05:34:19.047Z,13.42
2022-10-26T05:36:45.880Z,13.45
2022-10-26T05:39:12.550Z,13.42
2022-10-26T05:41:39.299Z,13.43
2022-10-26T05:44:06.092Z,13.43
2022-10-26T05:46:32.887Z,13.47
2022-10-26T05:48:59.577Z,13.52
2022-10-26T05:51:26.469Z,13.53
2022-10-26T05:53:55.676Z,13.56
2022-10-26T05:56:36.860Z,13.64
2022-10-26T05:59:10.346Z,13.68
2022-10-26T06:02:19.308Z,13.71
2022-10-26T06:04:50.728Z,13.71
2022-10-26T06:07:22.651Z,13.74
2022-10-26T06:09:49.968Z,13.83
2022-10-26T06:12:19.492Z,13.88
2022-10-26T06:14:47.090Z,13.90
2022-10-26T06:17:38.686Z,13.93
2022-10-26T06:20:31.943Z,14.02
2022-10-26T06:23:12.166Z,14.10
2022-10-26T06:25:58.217Z,14.08
2022-10-26T06:28:55.361Z,14.26
2022-10-26T06:31:22.272Z,14.36
2022-10-26T06:33:48.982Z,14.40
2022-10-26T06:36:24.321Z,14.47
2022-10-26T06:39:04.306Z,14.45
2022-10-26T06:41:35.711Z,14.48
2022-10-26T06:44:03.984Z,14.44
2022-10-26T06:46:39.736Z,14.37
2022-10-26T06:49:30.431Z,14.37
2022-10-26T06:52:03.848Z,14.39
2022-10-26T06:54:45.294Z,14.38
2022-10-26T06:57:14.311Z,14.39
2022-10-26T06:59:51.747Z,14.38
2022-10-26T07:02:19.588Z,14.44
2022-10-26T07:04:46.703Z,14.43
2022-10-26T07:07:22.002Z,14.54
2022-10-26T07:09:49.926Z,14.54
2022-10-26T07:12:16.631Z,14.52
2022-10-26T07:14:43.442Z,14.54
2022-10-26T07:17:10.565Z,14.47
2022-10-26T09:12:54.712Z,17.79
2022-10-26T09:15:36.559Z,17.84
2022-10-26T09:18:21.679Z,17.89
2022-10-26T09:21:18.409Z,17.87
2022-10-26T09:24:09.340Z,17.84
2022-10-26T09:29:43.251Z,17.66
2022-10-26T09:32:18.502Z,17.63
2022-10-26T09:35:03.664Z,17.83
2022-10-26T09:37:37.318Z,17.75
2022-10-26T09:40:07.220Z,17.68
2022-10-26T09:42:43.523Z,17.64
2022-10-26T09:45:16.266Z,17.35
2022-10-26T09:47:46.694Z,17.29
2022-10-26T09:50:36.790Z,17.14
2022-10-26T09:53:04.015Z,17.05
2022-10-26T09:55:40.709Z,17.02
2022-10-26T09:58:15.079Z,16.98
2022-10-26T10:00:42.955Z,16.84
2022-10-26T10:03:26.816Z,16.79
2022-10-26T10:05:54.902Z,16.75
2022-10-26T10:08:27.450Z,16.76
2022-10-26T10:11:00.055Z,16.95
2022-10-26T10:13:30.263Z,17.23
2022-10-26T10:16:23.991Z,17.36
2022-10-26T10:19:22.033Z,17.62
2022-10-26T10:21:51.341Z,17.74
2022-10-26T10:24:38.156Z,17.63
2022-10-26T10:27:17.688Z,17.44
2022-10-26T10:29:59.770Z,17.28
2022-10-26T10:32:35.684Z,16.86
2022-10-26T10:35:23.724Z,16.58
2022-10-26T10:37:51.516Z,16.39
2022-10-26T10:40:21.966Z,16.17
2022-10-26T10:42:51.416Z,16.00
2022-10-26T10:45:28.064Z,16.04
2022-10-26T10:48:28.792Z,16.33
2022-10-26T10:51:23.984Z,16.48
2022-10-26T10:53:53.953Z,16.73
2022-10-26T10:56:30.000Z,16.95
2022-10-26T10:59:05.704Z,17.19
2022-10-26T11:01:48.765Z,17.52
2022-10-26T11:04:23.534Z,17.87
2022-10-26T11:06:52.124Z,18.45
2022-10-26T11:09:25.645Z,18.80
2022-10-26T11:12:00.572Z,19.18
2022-10-26T11:14:32.878Z,19.58
2022-10-26T11:17:08.239Z,20.18
2022-10-26T11:19:43.057Z,20.97
2022-10-26T11:22:22.368Z,21.83
2022-10-26T11:25:02.684Z,22.46
2022-10-26T11:27:47.549Z,22.83
2022-10-26T11:30:21.491Z,23.13
2022-10-26T11:32:54.973Z,23.22
2022-10-26T11:35:31.314Z,23.13
2022-10-26T11:38:20.740Z,22.74
2022-10-26T11:41:06.363Z,22.42
2022-10-26T11:43:45.147Z,21.69
2022-10-26T11:46:52.251Z,21.15
2022-10-26T11:49:28.248Z,20.64
2022-10-26T11:52:07.119Z,20.45
2022-10-26T11:54:52.189Z,20.28
2022-10-26T11:57:21.560Z,19.75
2022-10-26T11:59:53.782Z,19.64
2022-10-26T12:02:25.559Z,19.28
2022-10-26T12:05:00.111Z,18.95
2022-10-26T12:07:31.329Z,18.73
2022-10-26T12:10:01.538Z,18.46
2022-10-26T12:12:54.189Z,18.16
2022-10-26T12:15:35.383Z,17.86
2022-10-26T12:18:43.132Z,17.34
2022-10-26T12:21:13.877Z,16.98
2022-10-26T12:24:00.349Z,16.51
2022-10-26T12:26:27.067Z,16.20
2022-10-26T12:29:02.898Z,15.93
2022-10-26T12:31:32.629Z,15.75
2022-10-26T12:34:00.425Z,15.57
2022-10-26T12:36:48.670Z,15.36
2022-10-26T12:39:37.800Z,15.23
2022-10-26T12:42:10.484Z,15.15
2022-10-26T12:44:39.682Z,15.08
2022-10-26T12:47:10.080Z,15.03
2022-10-26T12:50:01.635Z,15.14
2022-10-26T12:52:40.814Z,15.26
2022-10-26T12:55:07.493Z,15.37
2022-10-26T12:57:52.490Z,15.46
2022-10-26T13:00:24.955Z,15.55
2022-10-26T13:45:07.918Z,13.21
2022-10-26T13:47:56.748Z,13.21
2022-10-26T13:50:49.905Z,13.27
2022-10-26T13:53:23.303Z,13.25
2022-10-26T13:56:22.141Z,13.17
2022-10-26T13:59:02.990Z,13.10
2022-10-26T14:01:30.740Z,13.13
2022-10-26T14:03:58.285Z,13.18
2022-10-26T14:06:38.535Z,13.22
2022-10-26T14:09:11.419Z,13.23
2022-10-26T14:11:54.249Z,13.25
2022-10-26T14:14:28.413Z,13.33
2022-10-26T14:16:56.682Z,13.37
2022-10-26T14:19:28.299Z,13.42
2022-10-26T14:21:56.212Z,13.42
2022-10-26T14:24:47.344Z,13.50
2022-10-26T14:27:19.843Z,13.48
2022-10-26T14:30:03.659Z,13.48
2022-10-26T14:32:34.166Z,13.45
2022-10-26T14:35:00.956Z,13.44
2022-10-26T14:37:49.149Z,13.37
2022-10-26T14:40:18.554Z,13.38
2022-10-26T14:42:53.282Z,13.38
2022-10-26T14:45:29.883Z,13.26
2022-10-26T14:48:21.378Z,13.29
2022-10-26T14:51:21.644Z,13.33
2022-10-26T14:53:53.913Z,13.30
2022-10-26T14:56:46.712Z,13.29
2022-10-26T16:32:51.447Z,10.21
2022-10-26T16:35:18.543Z,10.38
2022-10-26T16:37:46.009Z,10.56
2022-10-26T16:40:30.068Z,10.77
2022-10-26T16:42:56.986Z,10.95
2022-10-26T16:45:23.845Z,11.08
2022-10-26T16:47:50.984Z,11.26
2022-10-26T16:50:21.187Z,11.38
2022-10-26T16:52:48.047Z,11.56
2022-10-26T16:55:15.619Z,11.65
2022-10-26T16:57:42.382Z,11.77
2022-10-26T17:00:09.745Z,11.86
2022-10-26T17:02:36.616Z,11.94
2022-10-26T17:05:06.925Z,11.95
2022-10-26T17:07:34.747Z,11.99
2022-10-26T17:10:01.722Z,12.02
2022-10-26T17:12:28.538Z,12.02
2022-10-26T17:14:56.413Z,12.08
2022-10-26T17:17:23.287Z,12.16
2022-10-26T17:19:50.273Z,12.15
2022-10-26T17:22:17.065Z,12.17
2022-10-26T17:24:43.812Z,12.20
2022-10-26T17:27:10.808Z,12.18
2022-10-26T17:29:37.584Z,12.24
2022-10-26T17:32:04.423Z,12.20
2022-10-26T17:34:31.265Z,12.22
2022-10-26T17:36:58.063Z,12.22
2022-10-26T17:39:24.860Z,12.30
2022-10-26T17:41:51.837Z,12.32
2022-10-26T17:44:18.694Z,12.26
2022-10-26T17:46:45.703Z,12.31
2022-10-26T17:49:12.502Z,12.23
2022-10-26T17:51:39.281Z,12.25
2022-10-26T17:54:06.126Z,12.16
2022-10-26T17:56:34.280Z,12.18
2022-10-26T17:59:03.378Z,12.18
2022-10-26T18:01:31.846Z,12.15
2022-10-26T18:03:59.171Z,12.19
2022-10-26T18:06:25.969Z,12.19
2022-10-26T18:08:52.834Z,12.23
2022-10-26T18:11:26.226Z,12.25
2022-10-26T18:13:55.242Z,12.26
2022-10-26T18:16:23.212Z,12.21
2022-10-26T18:19:01.720Z,12.14
2022-10-26T18:21:30.771Z,12.11
2022-10-26T18:23:57.730Z,12.07
2022-10-26T18:26:26.920Z,12.07
2022-10-26T18:28:55.461Z,11.99
2022-10-26T18:31:24.138Z,11.93
2022-10-26T18:34:06.026Z,11.88
2022-10-26T18:36:33.249Z,11.90
2022-10-26T18:39:00.448Z,11.80
2022-10-26T18:41:27.907Z,11.71
2022-10-26T18:43:59.731Z,11.56
2022-10-26T18:46:29.164Z,11.50
2022-10-26T18:48:57.229Z,11.51
2022-10-26T18:51:28.691Z,11.45
2022-10-26T18:53:56.944Z,11.42
2022-10-26T18:56:25.143Z,11.41
2022-10-26T18:58:55.515Z,11.44
2022-10-26T19:01:25.214Z,11.47
2022-10-26T19:04:00.441Z,11.50
2022-10-26T19:06:30.106Z,11.54
2022-10-26T19:08:57.160Z,11.59
2022-10-26T19:11:26.410Z,11.59
2022-10-26T19:13:54.146Z,11.58
2022-10-26T19:19:10.715Z,11.44
2022-10-26T19:21:37.703Z,11.40
2022-10-26T19:24:04.865Z,11.40
2022-10-26T19:26:38.756Z,11.39
2022-10-26T19:29:08.330Z,11.40
2022-10-26T19:31:38.440Z,11.43
2022-10-26T19:34:06.158Z,11.45
2022-10-26T19:36:33.500Z,11.46
2022-10-26T19:39:00.538Z,11.45
2022-10-26T19:41:28.273Z,11.47
2022-10-26T19:43:56.602Z,11.53
2022-10-26T19:46:26.515Z,11.55
2022-10-26T19:48:55.944Z,11.56
2022-10-26T19:51:23.743Z,11.57
2022-10-26T19:53:50.561Z,11.64
2022-10-26T19:56:17.624Z,11.63
2022-10-26T19:58:44.807Z,11.64
2022-10-26T20:01:13.181Z,11.63
2022-10-26T20:03:40.114Z,11.57
2022-10-26T20:06:12.730Z,11.51
2022-10-26T20:08:45.179Z,11.41
2022-10-26T20:11:15.562Z,11.33
2022-10-26T20:13:44.004Z,11.20
2022-10-26T20:16:12.023Z,11.16
2022-10-26T20:18:43.919Z,11.06
2022-10-26T20:21:14.972Z,11.02
2022-10-26T20:23:42.794Z,10.96
2022-10-26T20:26:11.866Z,10.90
2022-10-26T20:28:45.226Z,10.83
2022-10-26T20:31:13.243Z,10.79
2022-10-26T20:33:40.081Z,10.70
2022-10-26T20:36:07.307Z,10.67
2022-10-26T20:38:34.482Z,10.60
2022-10-26T20:41:04.850Z,10.56
2022-10-26T20:43:35.463Z,10.55
2022-10-26T20:46:02.397Z,10.47
2022-10-26T20:48:29.485Z,10.47
2022-10-26T20:51:06.451Z,10.38
2022-10-26T20:53:59.535Z,10.31
2022-10-26T20:56:26.799Z,10.25
2022-10-26T20:58:58.898Z,10.24
2022-10-26T21:01:38.314Z,10.18
2022-10-26T21:04:05.388Z,10.15
2022-10-26T21:06:40.097Z,10.11
2022-10-26T21:09:07.972Z,10.09
2022-10-26T21:11:34.866Z,10.09
2022-10-26T21:14:03.307Z,10.09
2022-10-26T21:16:30.109Z,10.07
2022-10-26T21:18:57.073Z,10.09
2022-10-26T21:21:23.751Z,10.05
2022-10-26T21:23:50.495Z,10.01
2022-10-26T21:26:17.228Z,9.96
2022-10-26T21:28:45.946Z,9.96
2022-10-26T21:31:15.559Z,9.91
2022-10-26T21:33:42.966Z,9.94
2022-10-26T21:36:12.388Z,9.94
2022-10-26T21:38:41.208Z,9.91
2022-10-26T21:41:19.205Z,9.93
2022-10-26T21:43:59.092Z,9.88
2022-10-26T21:46:36.933Z,9.83
2022-10-26T21:49:03.924Z,9.80
2022-10-26T21:51:30.707Z,9.79
2022-10-26T21:53:58.443Z,9.80
2022-10-26T21:56:25.221Z,9.84
2022-10-26T21:58:51.957Z,9.89
2022-10-26T22:01:21.047Z,9.90
2022-10-26T22:03:49.056Z,9.84
2022-10-26T22:08:48.376Z,9.82
2022-10-26T22:11:21.178Z,9.84
2022-10-26T22:13:48.671Z,9.79
2022-10-26T22:16:24.820Z,9.72
2022-10-26T22:18:54.243Z,9.68
2022-10-26T22:21:23.681Z,9.67
2022-10-26T22:23:50.419Z,9.63
2022-10-26T22:26:19.925Z,9.59
2022-10-26T22:28:48.511Z,9.55
2022-10-26T22:31:18.368Z,9.53
2022-10-26T22:33:46.137Z,9.49
2022-10-26T22:36:15.412Z,9.46
2022-10-26T22:38:42.529Z,9.41
2022-10-26T22:41:10.296Z,9.36
2022-10-26T22:43:37.536Z,9.32
2022-10-26T22:46:10.319Z,9.28
2022-10-26T22:48:37.402Z,9.25
2022-10-26T22:51:18.639Z,9.19
2022-10-26T22:53:46.451Z,9.20
2022-10-26T22:56:14.449Z,9.20
2022-10-26T22:58:41.330Z,9.20
2022-10-26T23:01:13.953Z,9.21
2022-10-26T23:03:40.838Z,9.19
2022-10-26T23:06:09.830Z,9.17
2022-10-26T23:08:36.580Z,9.17
2022-10-26T23:11:06.094Z,9.17
2022-10-26T23:13:32.892Z,9.22
2022-10-26T23:16:06.427Z,9.19
2022-10-26T23:18:34.469Z,9.19
2022-10-26T23:21:02.217Z,9.15
2022-10-26T23:23:29.164Z,9.13
2022-10-26T23:26:03.499Z,9.12
2022-10-26T23:28:30.293Z,9.10
2022-10-26T23:30:57.235Z,9.11
2022-10-26T23:33:24.078Z,9.11
2022-10-26T23:35:54.444Z,9.10
2022-10-26T23:38:21.634Z,9.10
2022-10-26T23:40:59.539Z,9.11
2022-10-26T23:43:27.387Z,9.12
2022-10-26T23:45:55.457Z,9.11
2022-10-26T23:48:22.911Z,9.13
2022-10-26T23:50:50.818Z,9.09
2022-10-26T23:53:20.054Z,9.12
2022-10-26T23:55:47.537Z,9.11
2022-10-26T23:58:15.453Z,9.13
